sensor_id;sensor_type;location;lat;lon;timestamp;temperature;humidity
1700;DHT22;847;48.058;7.810;2023-11-19T00:00:26;10.80;99.00
1700;DHT22;847;48.058;7.810;2023-11-19T00:02:54;10.80;99.00
1700;DHT22;847;48.058;7.810;2023-11-19T00:05:21;10.80;99.00
1700;DHT22;847;48.058;7.810;2023-11-19T00:07:47;10.80;99.00
1700;DHT22;847;48.058;7.810;2023-11-19T00:10:16;10.80;99.00
1700;DHT22;847;48.058;7.810;2023-11-19T00:12:45;10.80;99.00
1700;DHT22;847;48.058;7.810;2023-11-19T00:15:13;10.80;99.00
1700;DHT22;847;48.058;7.810;2023-11-19T00:17:40;10.80;99.00
1700;DHT22;847;48.058;7.810;2023-11-19T00:20:12;10.70;99.00
1700;DHT22;847;48.058;7.810;2023-11-19T00:22:39;10.70;99.00
1700;DHT22;847;48.058;7.810;2023-11-19T00:25:07;10.70;99.00
1700;DHT22;847;48.058;7.810;2023-11-19T00:27:34;10.70;99.00
1700;DHT22;847;48.058;7.810;2023-11-19T00:30:03;10.70;99.00
1700;DHT22;847;48.058;7.810;2023-11-19T00:32:31;10.80;99.00
1700;DHT22;847;48.058;7.810;2023-11-19T00:34:57;10.80;99.00
1700;DHT22;847;48.058;7.810;2023-11-19T00:37:25;10.80;99.00
1700;DHT22;847;48.058;7.810;2023-11-19T00:39:52;10.80;99.00
1700;DHT22;847;48.058;7.810;2023-11-19T00:42:19;10.80;99.00
1700;DHT22;847;48.058;7.810;2023-11-19T00:44:46;10.80;99.00
1700;DHT22;847;48.058;7.810;2023-11-19T00:47:12;10.80;99.00
1700;DHT22;847;48.058;7.810;2023-11-19T00:49:39;10.80;99.00
1700;DHT22;847;48.058;7.810;2023-11-19T00:52:06;10.90;99.00
1700;DHT22;847;48.058;7.810;2023-11-19T00:54:34;10.90;99.00
1700;DHT22;847;48.058;7.810;2023-11-19T00:57:00;10.90;99.00
1700;DHT22;847;48.058;7.810;2023-11-19T00:59:27;11.00;99.00
1700;DHT22;847;48.058;7.810;2023-11-19T01:01:55;11.00;99.00
1700;DHT22;847;48.058;7.810;2023-11-19T01:04:22;11.00;99.00
1700;DHT22;847;48.058;7.810;2023-11-19T01:06:49;11.00;99.00
1700;DHT22;847;48.058;7.810;2023-11-19T01:09:16;11.10;99.00
1700;DHT22;847;48.058;7.810;2023-11-19T01:11:44;11.10;99.00
1700;DHT22;847;48.058;7.810;2023-11-19T01:14:11;11.20;99.00
1700;DHT22;847;48.058;7.810;2023-11-19T01:16:38;11.20;99.00
1700;DHT22;847;48.058;7.810;2023-11-19T01:19:05;11.30;99.00
1700;DHT22;847;48.058;7.810;2023-11-19T01:21:31;11.30;99.00
1700;DHT22;847;48.058;7.810;2023-11-19T01:23:58;11.30;99.00
1700;DHT22;847;48.058;7.810;2023-11-19T01:26:26;11.40;99.00
1700;DHT22;847;48.058;7.810;2023-11-19T01:28:54;11.40;99.00
1700;DHT22;847;48.058;7.810;2023-11-19T01:31:21;11.40;99.00
1700;DHT22;847;48.058;7.810;2023-11-19T01:33:48;11.40;99.00
1700;DHT22;847;48.058;7.810;2023-11-19T01:36:15;11.40;99.00
1700;DHT22;847;48.058;7.810;2023-11-19T01:38:42;11.40;99.00
1700;DHT22;847;48.058;7.810;2023-11-19T01:41:09;11.40;99.00
1700;DHT22;847;48.058;7.810;2023-11-19T01:43:37;11.40;99.00
1700;DHT22;847;48.058;7.810;2023-11-19T01:46:06;11.50;99.00
1700;DHT22;847;48.058;7.810;2023-11-19T01:48:36;11.50;99.00
1700;DHT22;847;48.058;7.810;2023-11-19T01:51:05;11.50;99.00
1700;DHT22;847;48.058;7.810;2023-11-19T01:53:33;11.50;99.00
1700;DHT22;847;48.058;7.810;2023-11-19T01:56:01;11.50;99.00
1700;DHT22;847;48.058;7.810;2023-11-19T01:58:28;11.50;99.00
1700;DHT22;847;48.058;7.810;2023-11-19T02:00:56;11.50;99.00
1700;DHT22;847;48.058;7.810;2023-11-19T02:03:26;11.50;99.00
1700;DHT22;847;48.058;7.810;2023-11-19T02:05:54;11.50;99.00
1700;DHT22;847;48.058;7.810;2023-11-19T02:08:21;11.40;99.00
1700;DHT22;847;48.058;7.810;2023-11-19T02:10:48;11.40;99.00
1700;DHT22;847;48.058;7.810;2023-11-19T02:13:15;11.40;99.00
1700;DHT22;847;48.058;7.810;2023-11-19T02:15:42;11.40;99.00
1700;DHT22;847;48.058;7.810;2023-11-19T02:18:19;11.40;99.00
1700;DHT22;847;48.058;7.810;2023-11-19T02:20:48;11.40;99.00
1700;DHT22;847;48.058;7.810;2023-11-19T02:23:16;11.50;99.00
1700;DHT22;847;48.058;7.810;2023-11-19T02:25:47;11.50;99.00
1700;DHT22;847;48.058;7.810;2023-11-19T02:28:17;11.50;99.00
1700;DHT22;847;48.058;7.810;2023-11-19T02:30:44;11.50;99.00
1700;DHT22;847;48.058;7.810;2023-11-19T02:33:11;11.50;99.00
1700;DHT22;847;48.058;7.810;2023-11-19T02:35:38;11.50;99.00
1700;DHT22;847;48.058;7.810;2023-11-19T02:38:06;11.50;99.00
1700;DHT22;847;48.058;7.810;2023-11-19T02:40:33;11.50;99.00
1700;DHT22;847;48.058;7.810;2023-11-19T02:43:00;11.50;99.00
1700;DHT22;847;48.058;7.810;2023-11-19T02:45:28;11.50;99.00
1700;DHT22;847;48.058;7.810;2023-11-19T02:47:56;11.50;99.00
1700;DHT22;847;48.058;7.810;2023-11-19T02:50:23;11.50;99.00
1700;DHT22;847;48.058;7.810;2023-11-19T02:52:53;11.50;99.00
1700;DHT22;847;48.058;7.810;2023-11-19T02:55:21;11.50;99.00
1700;DHT22;847;48.058;7.810;2023-11-19T02:57:49;11.50;99.00
1700;DHT22;847;48.058;7.810;2023-11-19T03:00:19;11.50;99.00
1700;DHT22;847;48.058;7.810;2023-11-19T03:02:50;11.50;99.00
1700;DHT22;847;48.058;7.810;2023-11-19T03:05:24;11.50;99.00
1700;DHT22;847;48.058;7.810;2023-11-19T03:07:51;11.50;99.00
1700;DHT22;847;48.058;7.810;2023-11-19T03:10:18;11.50;99.00
1700;DHT22;847;48.058;7.810;2023-11-19T03:12:45;11.50;99.00
1700;DHT22;847;48.058;7.810;2023-11-19T03:15:12;11.50;99.00
1700;DHT22;847;48.058;7.810;2023-11-19T03:17:40;11.50;99.00
1700;DHT22;847;48.058;7.810;2023-11-19T03:20:10;11.50;99.00
1700;DHT22;847;48.058;7.810;2023-11-19T03:22:40;11.50;99.00
1700;DHT22;847;48.058;7.810;2023-11-19T03:25:08;11.50;99.00
1700;DHT22;847;48.058;7.810;2023-11-19T03:27:35;11.50;99.00
1700;DHT22;847;48.058;7.810;2023-11-19T03:30:02;11.50;99.00
1700;DHT22;847;48.058;7.810;2023-11-19T03:32:30;11.50;99.00
1700;DHT22;847;48.058;7.810;2023-11-19T03:34:57;11.50;99.00
1700;DHT22;847;48.058;7.810;2023-11-19T03:37:26;11.50;99.00
1700;DHT22;847;48.058;7.810;2023-11-19T03:39:53;11.50;99.00
1700;DHT22;847;48.058;7.810;2023-11-19T03:42:20;11.50;99.00
1700;DHT22;847;48.058;7.810;2023-11-19T03:44:47;11.50;99.00
1700;DHT22;847;48.058;7.810;2023-11-19T03:47:14;11.50;99.00
1700;DHT22;847;48.058;7.810;2023-11-19T03:49:41;11.50;99.00
1700;DHT22;847;48.058;7.810;2023-11-19T03:52:09;11.50;99.00
1700;DHT22;847;48.058;7.810;2023-11-19T03:54:37;11.50;99.00
1700;DHT22;847;48.058;7.810;2023-11-19T03:57:04;11.50;99.00
1700;DHT22;847;48.058;7.810;2023-11-19T03:59:31;11.60;99.00
1700;DHT22;847;48.058;7.810;2023-11-19T04:01:58;11.60;99.00
1700;DHT22;847;48.058;7.810;2023-11-19T04:04:26;11.60;99.00
1700;DHT22;847;48.058;7.810;2023-11-19T04:06:53;11.60;99.00
1700;DHT22;847;48.058;7.810;2023-11-19T04:09:20;11.60;99.00
1700;DHT22;847;48.058;7.810;2023-11-19T04:11:48;11.60;99.00
1700;DHT22;847;48.058;7.810;2023-11-19T04:14:15;11.60;99.00
1700;DHT22;847;48.058;7.810;2023-11-19T04:16:43;11.60;99.00
1700;DHT22;847;48.058;7.810;2023-11-19T04:19:10;11.60;99.00
1700;DHT22;847;48.058;7.810;2023-11-19T04:21:37;11.60;99.00
1700;DHT22;847;48.058;7.810;2023-11-19T04:24:06;11.70;99.00
1700;DHT22;847;48.058;7.810;2023-11-19T04:26:33;11.70;99.00
1700;DHT22;847;48.058;7.810;2023-11-19T04:29:03;11.70;99.00
1700;DHT22;847;48.058;7.810;2023-11-19T04:31:30;11.70;99.00
1700;DHT22;847;48.058;7.810;2023-11-19T04:33:58;11.70;99.00
1700;DHT22;847;48.058;7.810;2023-11-19T04:36:25;11.70;99.00
1700;DHT22;847;48.058;7.810;2023-11-19T04:38:52;11.70;99.00
1700;DHT22;847;48.058;7.810;2023-11-19T04:41:19;11.70;99.00
1700;DHT22;847;48.058;7.810;2023-11-19T04:43:46;11.80;99.00
1700;DHT22;847;48.058;7.810;2023-11-19T04:46:14;11.80;99.00
1700;DHT22;847;48.058;7.810;2023-11-19T04:48:41;11.80;99.00
1700;DHT22;847;48.058;7.810;2023-11-19T04:51:08;11.80;99.00
1700;DHT22;847;48.058;7.810;2023-11-19T04:53:35;11.80;99.00
1700;DHT22;847;48.058;7.810;2023-11-19T04:56:07;11.90;99.00
1700;DHT22;847;48.058;7.810;2023-11-19T04:58:34;11.80;99.00
1700;DHT22;847;48.058;7.810;2023-11-19T05:01:02;11.90;99.00
1700;DHT22;847;48.058;7.810;2023-11-19T05:03:31;11.90;99.00
1700;DHT22;847;48.058;7.810;2023-11-19T05:05:58;11.90;99.00
1700;DHT22;847;48.058;7.810;2023-11-19T05:08:24;11.90;99.00
1700;DHT22;847;48.058;7.810;2023-11-19T05:10:51;11.90;99.00
1700;DHT22;847;48.058;7.810;2023-11-19T05:13:18;12.00;99.00
1700;DHT22;847;48.058;7.810;2023-11-19T05:15:45;12.00;99.00
1700;DHT22;847;48.058;7.810;2023-11-19T05:18:12;12.00;99.00
1700;DHT22;847;48.058;7.810;2023-11-19T05:20:40;12.00;99.00
1700;DHT22;847;48.058;7.810;2023-11-19T05:23:07;12.00;99.00
1700;DHT22;847;48.058;7.810;2023-11-19T05:25:33;12.00;99.00
1700;DHT22;847;48.058;7.810;2023-11-19T05:28:00;12.10;99.00
1700;DHT22;847;48.058;7.810;2023-11-19T05:30:27;12.10;99.00
1700;DHT22;847;48.058;7.810;2023-11-19T05:32:54;12.10;99.00
1700;DHT22;847;48.058;7.810;2023-11-19T05:35:20;12.10;99.00
1700;DHT22;847;48.058;7.810;2023-11-19T05:37:48;12.10;99.00
1700;DHT22;847;48.058;7.810;2023-11-19T05:40:15;12.10;99.00
1700;DHT22;847;48.058;7.810;2023-11-19T05:42:43;12.10;99.00
1700;DHT22;847;48.058;7.810;2023-11-19T05:45:11;12.20;99.00
1700;DHT22;847;48.058;7.810;2023-11-19T05:47:38;12.20;99.00
1700;DHT22;847;48.058;7.810;2023-11-19T05:50:05;12.20;99.00
1700;DHT22;847;48.058;7.810;2023-11-19T05:52:32;12.20;99.00
1700;DHT22;847;48.058;7.810;2023-11-19T05:55:01;12.20;99.00
1700;DHT22;847;48.058;7.810;2023-11-19T05:57:29;12.20;99.00
1700;DHT22;847;48.058;7.810;2023-11-19T05:59:56;12.20;99.00
1700;DHT22;847;48.058;7.810;2023-11-19T06:02:24;12.20;99.00
1700;DHT22;847;48.058;7.810;2023-11-19T06:04:52;12.20;99.00
1700;DHT22;847;48.058;7.810;2023-11-19T06:07:19;12.20;99.00
1700;DHT22;847;48.058;7.810;2023-11-19T06:09:46;12.20;99.00
1700;DHT22;847;48.058;7.810;2023-11-19T06:12:14;12.30;99.00
1700;DHT22;847;48.058;7.810;2023-11-19T06:14:43;12.30;99.00
1700;DHT22;847;48.058;7.810;2023-11-19T06:17:10;12.30;99.00
1700;DHT22;847;48.058;7.810;2023-11-19T06:19:36;12.30;99.00
1700;DHT22;847;48.058;7.810;2023-11-19T06:22:04;12.30;99.00
1700;DHT22;847;48.058;7.810;2023-11-19T06:24:30;12.30;99.00
1700;DHT22;847;48.058;7.810;2023-11-19T06:26:57;12.30;99.00
1700;DHT22;847;48.058;7.810;2023-11-19T06:29:26;12.40;99.00
1700;DHT22;847;48.058;7.810;2023-11-19T06:31:52;12.40;99.00
1700;DHT22;847;48.058;7.810;2023-11-19T06:34:19;12.40;99.00
1700;DHT22;847;48.058;7.810;2023-11-19T06:36:46;12.40;99.00
1700;DHT22;847;48.058;7.810;2023-11-19T06:39:13;12.40;99.00
1700;DHT22;847;48.058;7.810;2023-11-19T06:41:44;12.40;99.00
1700;DHT22;847;48.058;7.810;2023-11-19T06:44:11;12.50;99.00
1700;DHT22;847;48.058;7.810;2023-11-19T06:46:40;12.50;99.00
1700;DHT22;847;48.058;7.810;2023-11-19T06:49:07;12.50;99.00
1700;DHT22;847;48.058;7.810;2023-11-19T06:51:34;12.50;99.00
1700;DHT22;847;48.058;7.810;2023-11-19T06:54:00;12.50;99.00
1700;DHT22;847;48.058;7.810;2023-11-19T06:56:27;12.50;99.00
1700;DHT22;847;48.058;7.810;2023-11-19T06:58:54;12.50;99.00
1700;DHT22;847;48.058;7.810;2023-11-19T07:01:21;12.60;99.00
1700;DHT22;847;48.058;7.810;2023-11-19T07:03:49;12.60;99.00
1700;DHT22;847;48.058;7.810;2023-11-19T07:06:16;12.60;99.00
1700;DHT22;847;48.058;7.810;2023-11-19T07:08:44;12.60;99.00
1700;DHT22;847;48.058;7.810;2023-11-19T07:11:11;12.60;99.00
1700;DHT22;847;48.058;7.810;2023-11-19T07:13:39;12.60;99.00
1700;DHT22;847;48.058;7.810;2023-11-19T07:16:07;12.60;99.00
1700;DHT22;847;48.058;7.810;2023-11-19T07:18:35;12.60;99.00
1700;DHT22;847;48.058;7.810;2023-11-19T07:21:04;12.60;99.00
1700;DHT22;847;48.058;7.810;2023-11-19T07:23:31;12.70;99.00
1700;DHT22;847;48.058;7.810;2023-11-19T07:25:59;12.70;99.00
1700;DHT22;847;48.058;7.810;2023-11-19T07:28:26;12.70;99.00
1700;DHT22;847;48.058;7.810;2023-11-19T07:30:54;12.70;99.00
1700;DHT22;847;48.058;7.810;2023-11-19T07:33:22;12.70;99.00
1700;DHT22;847;48.058;7.810;2023-11-19T07:35:48;12.70;99.00
1700;DHT22;847;48.058;7.810;2023-11-19T07:38:16;12.70;99.00
1700;DHT22;847;48.058;7.810;2023-11-19T07:40:43;12.80;99.00
1700;DHT22;847;48.058;7.810;2023-11-19T07:43:10;12.80;99.00
1700;DHT22;847;48.058;7.810;2023-11-19T07:45:37;12.80;99.00
1700;DHT22;847;48.058;7.810;2023-11-19T07:48:04;12.80;99.00
1700;DHT22;847;48.058;7.810;2023-11-19T07:50:32;12.80;99.00
1700;DHT22;847;48.058;7.810;2023-11-19T07:52:58;12.90;99.00
1700;DHT22;847;48.058;7.810;2023-11-19T07:55:27;12.90;99.00
1700;DHT22;847;48.058;7.810;2023-11-19T07:57:54;12.90;99.00
1700;DHT22;847;48.058;7.810;2023-11-19T08:00:21;12.90;99.00
1700;DHT22;847;48.058;7.810;2023-11-19T08:02:48;12.90;99.00
1700;DHT22;847;48.058;7.810;2023-11-19T08:05:14;12.90;99.00
1700;DHT22;847;48.058;7.810;2023-11-19T08:07:41;12.90;99.00
1700;DHT22;847;48.058;7.810;2023-11-19T08:10:08;12.90;99.00
1700;DHT22;847;48.058;7.810;2023-11-19T08:12:37;13.00;99.00
1700;DHT22;847;48.058;7.810;2023-11-19T08:15:05;13.00;99.00
1700;DHT22;847;48.058;7.810;2023-11-19T08:17:32;13.00;99.00
1700;DHT22;847;48.058;7.810;2023-11-19T08:19:59;13.00;99.00
1700;DHT22;847;48.058;7.810;2023-11-19T08:22:26;13.00;99.00
1700;DHT22;847;48.058;7.810;2023-11-19T08:24:53;13.10;99.00
1700;DHT22;847;48.058;7.810;2023-11-19T08:27:20;13.00;99.00
1700;DHT22;847;48.058;7.810;2023-11-19T08:29:53;13.10;99.00
1700;DHT22;847;48.058;7.810;2023-11-19T08:32:21;13.00;99.00
1700;DHT22;847;48.058;7.810;2023-11-19T08:34:47;13.10;99.00
1700;DHT22;847;48.058;7.810;2023-11-19T08:37:14;13.10;99.00
1700;DHT22;847;48.058;7.810;2023-11-19T08:39:43;13.10;99.00
1700;DHT22;847;48.058;7.810;2023-11-19T08:42:10;13.20;99.00
1700;DHT22;847;48.058;7.810;2023-11-19T08:44:36;13.20;99.00
1700;DHT22;847;48.058;7.810;2023-11-19T08:47:05;13.20;99.00
1700;DHT22;847;48.058;7.810;2023-11-19T08:49:31;13.20;99.00
1700;DHT22;847;48.058;7.810;2023-11-19T08:51:58;13.20;99.00
1700;DHT22;847;48.058;7.810;2023-11-19T08:54:25;13.20;99.00
1700;DHT22;847;48.058;7.810;2023-11-19T08:56:52;13.20;99.00
1700;DHT22;847;48.058;7.810;2023-11-19T08:59:18;13.20;99.00
1700;DHT22;847;48.058;7.810;2023-11-19T09:01:45;13.20;99.00
1700;DHT22;847;48.058;7.810;2023-11-19T09:04:13;13.20;99.00
1700;DHT22;847;48.058;7.810;2023-11-19T09:06:41;13.20;99.00
1700;DHT22;847;48.058;7.810;2023-11-19T09:09:09;13.30;99.00
1700;DHT22;847;48.058;7.810;2023-11-19T09:11:36;13.30;99.00
1700;DHT22;847;48.058;7.810;2023-11-19T09:14:03;13.30;99.00
1700;DHT22;847;48.058;7.810;2023-11-19T09:16:31;13.30;99.00
1700;DHT22;847;48.058;7.810;2023-11-19T09:18:58;13.30;99.00
1700;DHT22;847;48.058;7.810;2023-11-19T09:21:27;13.30;99.00
1700;DHT22;847;48.058;7.810;2023-11-19T09:23:54;13.30;99.00
1700;DHT22;847;48.058;7.810;2023-11-19T09:26:21;13.30;99.00
1700;DHT22;847;48.058;7.810;2023-11-19T09:28:48;13.30;99.00
1700;DHT22;847;48.058;7.810;2023-11-19T09:31:15;13.40;99.00
1700;DHT22;847;48.058;7.810;2023-11-19T09:33:42;13.30;99.00
1700;DHT22;847;48.058;7.810;2023-11-19T09:36:09;13.30;99.00
1700;DHT22;847;48.058;7.810;2023-11-19T09:38:37;13.30;99.00
1700;DHT22;847;48.058;7.810;2023-11-19T09:41:05;13.30;99.00
1700;DHT22;847;48.058;7.810;2023-11-19T09:43:34;13.40;99.00
1700;DHT22;847;48.058;7.810;2023-11-19T09:46:05;13.40;99.00
1700;DHT22;847;48.058;7.810;2023-11-19T09:48:33;13.40;99.00
1700;DHT22;847;48.058;7.810;2023-11-19T09:51:01;13.40;99.00
1700;DHT22;847;48.058;7.810;2023-11-19T09:53:28;13.40;99.00
1700;DHT22;847;48.058;7.810;2023-11-19T09:55:56;13.40;99.00
1700;DHT22;847;48.058;7.810;2023-11-19T09:58:23;13.40;99.00
1700;DHT22;847;48.058;7.810;2023-11-19T10:00:50;13.40;99.00
1700;DHT22;847;48.058;7.810;2023-11-19T10:03:18;13.50;99.00
1700;DHT22;847;48.058;7.810;2023-11-19T10:05:45;13.50;99.00
1700;DHT22;847;48.058;7.810;2023-11-19T10:08:12;13.50;99.00
1700;DHT22;847;48.058;7.810;2023-11-19T10:10:39;13.50;99.00
1700;DHT22;847;48.058;7.810;2023-11-19T10:13:07;13.60;99.00
1700;DHT22;847;48.058;7.810;2023-11-19T10:15:36;13.60;99.00
1700;DHT22;847;48.058;7.810;2023-11-19T10:18:04;13.60;99.00
1700;DHT22;847;48.058;7.810;2023-11-19T10:20:35;13.60;99.00
1700;DHT22;847;48.058;7.810;2023-11-19T10:23:02;13.60;99.00
1700;DHT22;847;48.058;7.810;2023-11-19T10:25:29;13.60;99.00
1700;DHT22;847;48.058;7.810;2023-11-19T10:27:57;13.60;99.00
1700;DHT22;847;48.058;7.810;2023-11-19T10:30:26;13.60;99.00
1700;DHT22;847;48.058;7.810;2023-11-19T10:33:04;13.60;99.00
1700;DHT22;847;48.058;7.810;2023-11-19T10:35:32;13.70;99.00
1700;DHT22;847;48.058;7.810;2023-11-19T10:38:00;13.70;99.00
1700;DHT22;847;48.058;7.810;2023-11-19T10:40:39;13.70;99.00
1700;DHT22;847;48.058;7.810;2023-11-19T10:43:07;13.80;99.00
1700;DHT22;847;48.058;7.810;2023-11-19T10:45:35;13.80;99.00
1700;DHT22;847;48.058;7.810;2023-11-19T10:48:03;13.80;99.00
1700;DHT22;847;48.058;7.810;2023-11-19T10:50:32;13.80;99.00
1700;DHT22;847;48.058;7.810;2023-11-19T10:52:59;13.80;99.00
1700;DHT22;847;48.058;7.810;2023-11-19T10:55:27;13.80;99.00
1700;DHT22;847;48.058;7.810;2023-11-19T10:57:59;13.80;99.00
1700;DHT22;847;48.058;7.810;2023-11-19T11:00:29;13.80;99.00
1700;DHT22;847;48.058;7.810;2023-11-19T11:03:00;14.20;99.00
1700;DHT22;847;48.058;7.810;2023-11-19T11:05:29;14.60;99.00
1700;DHT22;847;48.058;7.810;2023-11-19T11:08:00;14.80;99.00
1700;DHT22;847;48.058;7.810;2023-11-19T11:10:28;15.20;99.00
1700;DHT22;847;48.058;7.810;2023-11-19T11:12:59;15.40;99.00
1700;DHT22;847;48.058;7.810;2023-11-19T11:15:27;15.70;99.00
1700;DHT22;847;48.058;7.810;2023-11-19T11:17:59;15.90;99.00
1700;DHT22;847;48.058;7.810;2023-11-19T11:20:26;16.00;99.00
1700;DHT22;847;48.058;7.810;2023-11-19T11:23:05;16.00;99.00
1700;DHT22;847;48.058;7.810;2023-11-19T11:25:40;16.10;99.00
1700;DHT22;847;48.058;7.810;2023-11-19T11:28:23;16.20;99.00
1700;DHT22;847;48.058;7.810;2023-11-19T11:31:10;16.30;99.00
1700;DHT22;847;48.058;7.810;2023-11-19T11:34:04;16.70;99.00
1700;DHT22;847;48.058;7.810;2023-11-19T11:36:36;16.60;99.00
1700;DHT22;847;48.058;7.810;2023-11-19T11:39:06;16.60;99.00
1700;DHT22;847;48.058;7.810;2023-11-19T11:41:39;16.60;99.00
1700;DHT22;847;48.058;7.810;2023-11-19T11:44:15;16.60;99.00
1700;DHT22;847;48.058;7.810;2023-11-19T11:46:54;16.60;99.00
1700;DHT22;847;48.058;7.810;2023-11-19T11:49:28;16.70;99.00
1700;DHT22;847;48.058;7.810;2023-11-19T11:51:58;16.70;99.00
1700;DHT22;847;48.058;7.810;2023-11-19T11:54:26;16.70;99.00
1700;DHT22;847;48.058;7.810;2023-11-19T11:57:07;16.70;99.00
1700;DHT22;847;48.058;7.810;2023-11-19T11:59:45;16.60;99.00
1700;DHT22;847;48.058;7.810;2023-11-19T12:02:14;16.70;99.00
1700;DHT22;847;48.058;7.810;2023-11-19T12:04:46;16.80;99.00
1700;DHT22;847;48.058;7.810;2023-11-19T12:07:14;16.60;99.00
1700;DHT22;847;48.058;7.810;2023-11-19T12:09:41;16.60;99.00
1700;DHT22;847;48.058;7.810;2023-11-19T12:12:19;16.60;99.00
1700;DHT22;847;48.058;7.810;2023-11-19T12:15:04;16.60;99.00
1700;DHT22;847;48.058;7.810;2023-11-19T12:17:42;16.60;99.00
1700;DHT22;847;48.058;7.810;2023-11-19T12:20:12;16.70;99.00
1700;DHT22;847;48.058;7.810;2023-11-19T12:22:40;16.70;99.00
1700;DHT22;847;48.058;7.810;2023-11-19T12:25:07;16.60;99.00
1700;DHT22;847;48.058;7.810;2023-11-19T12:27:35;16.70;99.00
1700;DHT22;847;48.058;7.810;2023-11-19T12:30:02;16.70;99.00
1700;DHT22;847;48.058;7.810;2023-11-19T12:32:38;16.50;99.00
1700;DHT22;847;48.058;7.810;2023-11-19T12:35:05;16.40;99.00
1700;DHT22;847;48.058;7.810;2023-11-19T12:37:39;16.40;99.00
1700;DHT22;847;48.058;7.810;2023-11-19T12:40:14;16.40;99.00
1700;DHT22;847;48.058;7.810;2023-11-19T12:42:41;16.50;99.00
1700;DHT22;847;48.058;7.810;2023-11-19T12:45:08;16.40;99.00
1700;DHT22;847;48.058;7.810;2023-11-19T12:47:36;16.40;99.00
1700;DHT22;847;48.058;7.810;2023-11-19T12:50:04;16.40;99.00
1700;DHT22;847;48.058;7.810;2023-11-19T12:52:33;16.40;99.00
1700;DHT22;847;48.058;7.810;2023-11-19T12:55:01;16.30;99.00
1700;DHT22;847;48.058;7.810;2023-11-19T12:57:38;16.20;99.00
1700;DHT22;847;48.058;7.810;2023-11-19T13:00:06;16.20;99.00
1700;DHT22;847;48.058;7.810;2023-11-19T13:02:46;16.20;99.00
1700;DHT22;847;48.058;7.810;2023-11-19T13:05:27;16.20;99.00
1700;DHT22;847;48.058;7.810;2023-11-19T13:08:01;16.20;99.00
1700;DHT22;847;48.058;7.810;2023-11-19T13:10:28;16.10;99.00
1700;DHT22;847;48.058;7.810;2023-11-19T13:13:03;16.00;99.00
1700;DHT22;847;48.058;7.810;2023-11-19T13:15:30;16.00;99.00
1700;DHT22;847;48.058;7.810;2023-11-19T13:17:57;16.10;99.00
1700;DHT22;847;48.058;7.810;2023-11-19T13:20:24;16.10;99.00
1700;DHT22;847;48.058;7.810;2023-11-19T13:22:55;16.10;99.00
1700;DHT22;847;48.058;7.810;2023-11-19T13:25:23;16.10;99.00
1700;DHT22;847;48.058;7.810;2023-11-19T13:27:50;16.20;99.00
1700;DHT22;847;48.058;7.810;2023-11-19T13:30:17;16.10;99.00
1700;DHT22;847;48.058;7.810;2023-11-19T13:32:45;16.00;99.00
1700;DHT22;847;48.058;7.810;2023-11-19T13:35:12;16.00;99.00
1700;DHT22;847;48.058;7.810;2023-11-19T13:37:39;16.00;99.00
1700;DHT22;847;48.058;7.810;2023-11-19T13:40:07;15.90;99.00
1700;DHT22;847;48.058;7.810;2023-11-19T13:42:36;15.90;99.00
1700;DHT22;847;48.058;7.810;2023-11-19T13:45:07;15.90;99.00
1700;DHT22;847;48.058;7.810;2023-11-19T13:47:36;15.90;99.00
1700;DHT22;847;48.058;7.810;2023-11-19T13:50:03;16.00;99.00
1700;DHT22;847;48.058;7.810;2023-11-19T13:52:31;16.00;99.00
1700;DHT22;847;48.058;7.810;2023-11-19T13:54:58;16.00;99.00
1700;DHT22;847;48.058;7.810;2023-11-19T13:57:25;16.00;99.00
1700;DHT22;847;48.058;7.810;2023-11-19T13:59:53;16.10;99.00
1700;DHT22;847;48.058;7.810;2023-11-19T14:02:20;16.10;99.00
1700;DHT22;847;48.058;7.810;2023-11-19T14:04:47;16.00;99.00
1700;DHT22;847;48.058;7.810;2023-11-19T14:07:13;16.00;99.00
1700;DHT22;847;48.058;7.810;2023-11-19T14:09:41;15.90;99.00
1700;DHT22;847;48.058;7.810;2023-11-19T14:12:08;15.90;99.00
1700;DHT22;847;48.058;7.810;2023-11-19T14:14:38;15.90;99.00
1700;DHT22;847;48.058;7.810;2023-11-19T14:17:07;15.80;99.00
1700;DHT22;847;48.058;7.810;2023-11-19T14:19:34;15.80;99.00
1700;DHT22;847;48.058;7.810;2023-11-19T14:22:00;15.70;99.00
1700;DHT22;847;48.058;7.810;2023-11-19T14:24:27;15.80;99.00
1700;DHT22;847;48.058;7.810;2023-11-19T14:26:54;15.70;99.00
1700;DHT22;847;48.058;7.810;2023-11-19T14:29:23;15.70;99.00
1700;DHT22;847;48.058;7.810;2023-11-19T14:31:51;15.70;99.00
1700;DHT22;847;48.058;7.810;2023-11-19T14:34:19;15.70;99.00
1700;DHT22;847;48.058;7.810;2023-11-19T14:36:46;15.60;99.00
1700;DHT22;847;48.058;7.810;2023-11-19T14:39:14;15.60;99.00
1700;DHT22;847;48.058;7.810;2023-11-19T14:41:40;15.60;99.00
1700;DHT22;847;48.058;7.810;2023-11-19T14:44:08;15.60;99.00
1700;DHT22;847;48.058;7.810;2023-11-19T14:46:35;15.60;99.00
1700;DHT22;847;48.058;7.810;2023-11-19T14:49:02;15.60;99.00
1700;DHT22;847;48.058;7.810;2023-11-19T14:51:30;15.60;99.00
1700;DHT22;847;48.058;7.810;2023-11-19T14:53:57;15.60;99.00
1700;DHT22;847;48.058;7.810;2023-11-19T14:56:24;15.50;99.00
1700;DHT22;847;48.058;7.810;2023-11-19T14:58:50;15.50;99.00
1700;DHT22;847;48.058;7.810;2023-11-19T15:01:17;15.50;99.00
1700;DHT22;847;48.058;7.810;2023-11-19T15:03:44;15.40;99.00
1700;DHT22;847;48.058;7.810;2023-11-19T15:06:12;15.50;99.00
1700;DHT22;847;48.058;7.810;2023-11-19T15:08:42;15.40;99.00
1700;DHT22;847;48.058;7.810;2023-11-19T15:11:10;15.40;99.00
1700;DHT22;847;48.058;7.810;2023-11-19T15:13:37;15.30;99.00
1700;DHT22;847;48.058;7.810;2023-11-19T15:16:07;15.40;99.00
1700;DHT22;847;48.058;7.810;2023-11-19T15:18:36;15.30;99.00
1700;DHT22;847;48.058;7.810;2023-11-19T15:21:03;15.30;99.00
1700;DHT22;847;48.058;7.810;2023-11-19T15:23:30;15.30;99.00
1700;DHT22;847;48.058;7.810;2023-11-19T15:25:58;15.30;99.00
1700;DHT22;847;48.058;7.810;2023-11-19T15:28:24;15.20;99.00
1700;DHT22;847;48.058;7.810;2023-11-19T15:30:51;15.20;99.00
1700;DHT22;847;48.058;7.810;2023-11-19T15:33:18;15.20;99.00
1700;DHT22;847;48.058;7.810;2023-11-19T15:35:45;15.10;99.00
1700;DHT22;847;48.058;7.810;2023-11-19T15:38:11;15.10;99.00
1700;DHT22;847;48.058;7.810;2023-11-19T15:40:38;15.00;99.00
1700;DHT22;847;48.058;7.810;2023-11-19T15:43:06;15.10;99.00
1700;DHT22;847;48.058;7.810;2023-11-19T15:45:33;15.00;99.00
1700;DHT22;847;48.058;7.810;2023-11-19T15:48:03;14.90;99.00
1700;DHT22;847;48.058;7.810;2023-11-19T15:50:30;14.90;99.00
1700;DHT22;847;48.058;7.810;2023-11-19T15:52:57;15.00;99.00
1700;DHT22;847;48.058;7.810;2023-11-19T15:55:27;15.00;99.00
1700;DHT22;847;48.058;7.810;2023-11-19T15:57:53;14.90;99.00
1700;DHT22;847;48.058;7.810;2023-11-19T16:00:21;15.00;99.00
1700;DHT22;847;48.058;7.810;2023-11-19T16:02:48;15.00;99.00
1700;DHT22;847;48.058;7.810;2023-11-19T16:05:15;15.00;99.00
1700;DHT22;847;48.058;7.810;2023-11-19T16:07:42;15.00;99.00
1700;DHT22;847;48.058;7.810;2023-11-19T16:10:09;15.00;99.00
1700;DHT22;847;48.058;7.810;2023-11-19T16:12:38;15.00;99.00
1700;DHT22;847;48.058;7.810;2023-11-19T16:15:05;15.00;99.00
1700;DHT22;847;48.058;7.810;2023-11-19T16:17:34;14.80;99.00
1700;DHT22;847;48.058;7.810;2023-11-19T16:20:02;14.80;99.00
1700;DHT22;847;48.058;7.810;2023-11-19T16:22:32;14.80;99.00